createdAt,value
2022-07-31T00:00:34.569Z,17.67
2022-07-31T00:03:02.211Z,17.67
2022-07-31T00:05:31.266Z,17.68
2022-07-31T00:07:59.420Z,17.68
2022-07-31T00:10:27.135Z,17.68
2022-07-31T00:12:54.724Z,17.69
2022-07-31T00:15:22.816Z,17.69
2022-07-31T00:17:50.580Z,17.67
2022-07-31T00:20:18.891Z,17.66
2022-07-31T00:22:49.329Z,17.63
2022-07-31T00:25:17.751Z,17.63
2022-07-31T00:27:45.755Z,17.61
2022-07-31T00:30:14.010Z,17.58
2022-07-31T00:32:42.145Z,17.58
2022-07-31T00:35:12.290Z,17.56
2022-07-31T00:37:40.604Z,17.56
2022-07-31T00:40:13.177Z,17.54
2022-07-31T00:42:41.317Z,17.49
2022-07-31T00:45:10.145Z,17.48
2022-07-31T00:47:41.181Z,17.47
2022-07-31T00:50:10.015Z,17.45
2022-07-31T00:52:37.897Z,17.46
2022-07-31T00:55:06.246Z,17.45
2022-07-31T00:57:35.281Z,17.46
2022-07-31T01:00:02.876Z,17.45
2022-07-31T01:02:31.501Z,17.45
2022-07-31T01:04:59.069Z,17.45
2022-07-31T01:07:26.664Z,17.45
2022-07-31T01:09:55.290Z,17.46
2022-07-31T01:12:28.307Z,17.46
2022-07-31T01:15:00.780Z,17.46
2022-07-31T01:17:32.064Z,17.46
2022-07-31T01:20:00.475Z,17.48
2022-07-31T01:22:52.554Z,17.48
2022-07-31T01:25:34.076Z,17.47
2022-07-31T01:28:08.025Z,17.46
2022-07-31T01:30:43.968Z,17.48
2022-07-31T01:33:16.214Z,17.48
2022-07-31T01:35:49.466Z,17.50
2022-07-31T01:38:23.203Z,17.51
2022-07-31T01:40:58.285Z,17.49
2022-07-31T01:43:29.478Z,17.46
2022-07-31T01:46:01.677Z,17.44
2022-07-31T01:48:32.385Z,17.41
2022-07-31T01:51:02.773Z,17.38
2022-07-31T01:53:31.570Z,17.39
2022-07-31T01:56:04.050Z,17.39
2022-07-31T01:58:36.057Z,17.37
2022-07-31T02:01:06.590Z,17.37
2022-07-31T02:03:43.421Z,17.39
2022-07-31T02:06:15.860Z,17.39
2022-07-31T02:08:45.919Z,17.41
2022-07-31T02:11:14.936Z,17.42
2022-07-31T02:13:43.132Z,17.43
2022-07-31T02:16:12.800Z,17.44
2022-07-31T02:18:41.589Z,17.45
2022-07-31T02:21:09.359Z,17.44
2022-07-31T02:23:38.290Z,17.44
2022-07-31T02:26:06.990Z,17.44
2022-07-31T02:28:38.606Z,17.44
2022-07-31T02:31:11.578Z,17.43
2022-07-31T02:33:42.832Z,17.41
2022-07-31T02:36:12.557Z,17.41
2022-07-31T02:38:41.685Z,17.41
2022-07-31T02:41:11.305Z,17.41
2022-07-31T02:43:40.331Z,17.42
2022-07-31T02:46:09.428Z,17.43
2022-07-31T02:48:38.106Z,17.46
2022-07-31T02:51:07.469Z,17.46
2022-07-31T02:53:37.442Z,17.47
2022-07-31T02:56:09.262Z,17.48
2022-07-31T02:58:41.734Z,17.48
2022-07-31T03:01:10.429Z,17.48
2022-07-31T03:03:38.200Z,17.48
2022-07-31T03:06:07.213Z,17.50
2022-07-31T03:08:35.862Z,17.48
2022-07-31T03:11:03.636Z,17.47
2022-07-31T03:13:32.889Z,17.47
2022-07-31T03:16:01.881Z,17.45
2022-07-31T03:18:30.492Z,17.43
2022-07-31T03:20:58.296Z,17.43
2022-07-31T03:23:35.941Z,17.41
2022-07-31T03:26:03.888Z,17.41
2022-07-31T03:28:31.757Z,17.43
2022-07-31T03:30:59.344Z,17.43
2022-07-31T03:33:26.948Z,17.43
2022-07-31T03:35:54.577Z,17.44
2022-07-31T03:38:40.564Z,17.43
2022-07-31T03:41:11.740Z,17.41
2022-07-31T03:43:47.260Z,17.40
2022-07-31T03:46:17.181Z,17.39
2022-07-31T03:48:45.522Z,17.34
2022-07-31T03:51:13.930Z,17.31
2022-07-31T03:53:42.352Z,17.33
2022-07-31T03:56:12.562Z,17.36
2022-07-31T03:58:40.745Z,17.39
2022-07-31T04:01:12.042Z,17.41
2022-07-31T04:03:40.281Z,17.48
2022-07-31T04:06:08.058Z,17.56
2022-07-31T04:08:35.674Z,17.67
2022-07-31T04:11:03.262Z,17.75
2022-07-31T04:13:32.149Z,17.86
2022-07-31T04:15:59.768Z,17.94
2022-07-31T04:18:27.341Z,18.02
2022-07-31T04:20:54.917Z,18.07
2022-07-31T04:23:22.477Z,18.11
2022-07-31T04:26:00.254Z,18.15
2022-07-31T04:28:27.881Z,18.21
2022-07-31T04:30:56.898Z,18.26
2022-07-31T04:33:24.517Z,18.28
2022-07-31T04:35:53.098Z,18.33
2022-07-31T04:38:21.636Z,18.34
2022-07-31T04:40:49.633Z,18.38
2022-07-31T04:43:17.824Z,18.39
2022-07-31T04:45:45.741Z,18.45
2022-07-31T04:48:15.000Z,18.51
2022-07-31T04:50:42.550Z,18.58
2022-07-31T04:53:10.145Z,18.68
2022-07-31T04:55:37.693Z,18.76
2022-07-31T04:58:05.285Z,19.42
2022-07-31T05:00:32.841Z,19.48
2022-07-31T05:03:00.493Z,19.52
2022-07-31T05:05:29.386Z,19.60
2022-07-31T05:07:56.929Z,19.71
2022-07-31T05:10:38.594Z,19.84
2022-07-31T05:13:06.129Z,19.95
2022-07-31T05:15:33.705Z,20.10
2022-07-31T05:18:01.253Z,20.34
2022-07-31T05:20:30.165Z,20.68
2022-07-31T05:22:57.730Z,21.63
2022-07-31T05:25:25.288Z,22.57
2022-07-31T05:27:52.842Z,23.79
2022-07-31T05:30:30.165Z,23.94
2022-07-31T05:32:58.402Z,23.67
2022-07-31T05:35:26.013Z,23.49
2022-07-31T05:37:55.364Z,23.58
2022-07-31T05:40:23.287Z,24.36
2022-07-31T05:42:50.842Z,25.05
2022-07-31T05:45:18.640Z,25.57
2022-07-31T05:47:46.203Z,25.99
2022-07-31T05:50:14.332Z,27.04
2022-07-31T05:52:42.648Z,27.77
2022-07-31T05:55:11.784Z,28.55
2022-07-31T05:57:39.328Z,29.47
2022-07-31T06:00:07.772Z,30.18
2022-07-31T06:02:37.041Z,29.39
2022-07-31T06:05:05.331Z,28.78
2022-07-31T06:07:32.903Z,28.35
2022-07-31T06:10:01.442Z,27.79
2022-07-31T06:12:30.366Z,27.05
2022-07-31T06:14:58.075Z,26.41
2022-07-31T06:17:40.249Z,26.57
2022-07-31T06:20:12.821Z,27.95
2022-07-31T06:22:41.092Z,29.04
2022-07-31T06:25:09.732Z,29.83
2022-07-31T06:27:42.003Z,30.57
2022-07-31T06:30:11.321Z,31.06
2022-07-31T06:32:39.019Z,31.44
2022-07-31T06:35:07.876Z,31.69
2022-07-31T06:37:35.671Z,31.24
2022-07-31T06:40:03.599Z,31.83
2022-07-31T06:42:31.229Z,32.54
2022-07-31T06:45:00.212Z,33.10
2022-07-31T06:47:27.936Z,33.61
2022-07-31T06:49:56.409Z,33.25
2022-07-31T06:52:24.074Z,32.37
2022-07-31T06:54:51.825Z,31.70
2022-07-31T06:57:19.525Z,30.81
2022-07-31T06:59:47.081Z,30.04
2022-07-31T07:02:16.044Z,29.35
2022-07-31T07:04:57.421Z,28.39
2022-07-31T07:07:31.954Z,27.81
2022-07-31T07:09:59.904Z,27.75
2022-07-31T07:12:28.439Z,27.95
2022-07-31T07:14:56.109Z,27.90
2022-07-31T07:17:28.948Z,28.29
2022-07-31T07:19:57.311Z,28.42
2022-07-31T07:22:31.618Z,28.48
2022-07-31T07:25:00.271Z,29.17
2022-07-31T07:27:27.843Z,29.83
2022-07-31T07:29:55.412Z,30.71
2022-07-31T07:32:22.999Z,30.91
2022-07-31T07:34:59.569Z,30.71
2022-07-31T07:37:28.561Z,30.66
2022-07-31T07:39:56.176Z,30.61
2022-07-31T07:42:23.712Z,30.47
2022-07-31T07:44:51.311Z,30.55
2022-07-31T07:47:18.914Z,30.55
2022-07-31T07:49:46.905Z,30.40
2022-07-31T07:52:16.146Z,29.66
2022-07-31T07:54:44.269Z,29.49
2022-07-31T07:57:15.855Z,29.43
2022-07-31T07:59:44.061Z,29.58
2022-07-31T08:02:12.300Z,29.80
2022-07-31T08:04:39.927Z,29.92
2022-07-31T08:07:07.503Z,29.92
2022-07-31T08:09:37.921Z,29.36
2022-07-31T08:12:06.898Z,28.93
2022-07-31T08:14:34.683Z,28.76
2022-07-31T08:17:02.377Z,28.63
2022-07-31T08:19:31.506Z,28.70
2022-07-31T08:21:59.082Z,28.02
2022-07-31T08:24:28.372Z,27.89
2022-07-31T08:27:14.974Z,27.91
2022-07-31T08:29:43.417Z,27.90
2022-07-31T08:32:11.074Z,27.94
2022-07-31T08:34:41.983Z,27.82
2022-07-31T08:37:59.320Z,27.43
2022-07-31T08:39:57.682Z,27.42
2022-07-31T08:42:26.840Z,27.10
2022-07-31T08:44:54.414Z,27.15
2022-07-31T08:47:25.161Z,27.07
2022-07-31T08:49:52.924Z,26.77
2022-07-31T08:52:23.778Z,26.85
2022-07-31T08:54:55.404Z,26.52
2022-07-31T08:57:23.025Z,26.56
2022-07-31T08:59:52.544Z,26.57
2022-07-31T09:02:20.174Z,26.80
2022-07-31T09:04:52.442Z,27.18
2022-07-31T09:07:20.497Z,27.57
2022-07-31T09:09:51.496Z,27.99
2022-07-31T09:12:33.281Z,28.32
2022-07-31T09:15:03.154Z,28.29
2022-07-31T09:17:35.273Z,28.32
2022-07-31T09:20:04.441Z,28.61
2022-07-31T09:22:32.377Z,28.49
2022-07-31T09:25:12.993Z,28.58
2022-07-31T09:27:40.821Z,28.64
2022-07-31T09:30:10.857Z,28.68
2022-07-31T09:32:38.672Z,28.53
2022-07-31T09:35:11.661Z,28.71
2022-07-31T09:37:40.218Z,28.95
2022-07-31T09:40:09.293Z,29.13
2022-07-31T09:42:38.991Z,29.24
2022-07-31T09:45:22.771Z,29.31
2022-07-31T09:48:04.837Z,29.44
2022-07-31T09:50:33.938Z,29.40
2022-07-31T09:53:02.622Z,29.46
2022-07-31T09:55:30.374Z,29.45
2022-07-31T09:57:59.418Z,29.24
2022-07-31T10:00:28.830Z,29.44
2022-07-31T10:02:58.284Z,29.44
2022-07-31T10:05:27.497Z,29.50
2022-07-31T10:07:58.005Z,29.32
2022-07-31T10:10:25.809Z,29.49
2022-07-31T10:12:56.858Z,29.38
2022-07-31T10:15:26.897Z,29.25
2022-07-31T10:17:56.547Z,29.18
2022-07-31T10:20:25.860Z,29.20
2022-07-31T10:22:57.113Z,29.27
2022-07-31T10:25:27.178Z,29.20
2022-07-31T10:27:57.071Z,29.43
2022-07-31T10:30:28.122Z,29.61
2022-07-31T10:32:58.565Z,29.91
2022-07-31T10:35:26.760Z,29.85
2022-07-31T10:37:59.425Z,29.98
2022-07-31T10:40:34.452Z,30.21
2022-07-31T10:43:18.133Z,30.25
2022-07-31T10:45:50.507Z,30.57
2022-07-31T10:48:20.364Z,30.83
2022-07-31T10:50:48.899Z,31.02
2022-07-31T10:53:17.614Z,31.30
2022-07-31T10:55:45.472Z,31.11
2022-07-31T10:58:15.497Z,31.15
2022-07-31T11:00:43.558Z,31.02
2022-07-31T11:03:15.841Z,30.85
2022-07-31T11:06:02.346Z,30.82
2022-07-31T11:08:41.606Z,30.62
2022-07-31T11:11:09.258Z,30.80
2022-07-31T11:13:46.591Z,30.50
2022-07-31T11:16:14.461Z,30.29
2022-07-31T11:18:42.171Z,30.22
2022-07-31T11:21:37.075Z,30.21
2022-07-31T11:24:04.123Z,30.15
2022-07-31T11:26:41.526Z,30.18
2022-07-31T11:30:01.944Z,30.07
2022-07-31T11:32:00.836Z,29.84
2022-07-31T11:34:28.452Z,29.86
2022-07-31T11:36:57.456Z,29.80
2022-07-31T11:39:36.590Z,29.76
2022-07-31T11:42:05.070Z,29.70
2022-07-31T11:44:35.657Z,29.55
2022-07-31T11:47:03.500Z,29.40
2022-07-31T11:50:01.778Z,29.21
2022-07-31T11:52:36.966Z,29.43
2022-07-31T11:55:09.137Z,29.63
2022-07-31T11:57:51.662Z,29.60
2022-07-31T12:00:26.553Z,29.48
2022-07-31T12:02:58.295Z,29.75
2022-07-31T12:05:38.948Z,29.79
2022-07-31T12:08:09.133Z,29.74
2022-07-31T12:10:37.138Z,29.99
2022-07-31T12:13:04.728Z,29.93
2022-07-31T12:15:32.353Z,29.94
2022-07-31T12:18:05.004Z,29.88
2022-07-31T12:20:36.226Z,29.82
2022-07-31T12:23:06.933Z,29.93
2022-07-31T12:25:45.509Z,29.91
2022-07-31T12:28:15.070Z,29.74
2022-07-31T12:30:43.221Z,29.64
2022-07-31T12:33:13.067Z,29.72
2022-07-31T12:35:56.112Z,29.54
2022-07-31T12:38:40.864Z,29.37
2022-07-31T12:41:14.121Z,29.30
2022-07-31T12:43:51.338Z,29.17
2022-07-31T12:46:23.526Z,28.94
2022-07-31T12:48:51.869Z,28.75
2022-07-31T12:51:20.210Z,28.64
2022-07-31T12:54:08.928Z,28.43
2022-07-31T12:56:39.467Z,28.34
2022-07-31T12:59:07.987Z,28.24
2022-07-31T13:01:36.661Z,28.12
2022-07-31T13:04:06.013Z,28.08
2022-07-31T13:06:36.154Z,28.03
2022-07-31T13:09:04.340Z,27.88
2022-07-31T13:11:45.653Z,27.87
2022-07-31T13:14:17.729Z,27.75
2022-07-31T13:16:45.565Z,27.68
2022-07-31T13:19:13.932Z,27.66
2022-07-31T13:21:48.313Z,27.58
2022-07-31T13:24:17.657Z,27.58
2022-07-31T13:26:45.715Z,27.53
2022-07-31T13:29:13.589Z,27.41
2022-07-31T13:31:42.710Z,27.35
2022-07-31T13:34:10.280Z,27.25
2022-07-31T13:36:39.390Z,27.15
2022-07-31T13:39:07.234Z,27.01
2022-07-31T13:41:35.517Z,27.00
2022-07-31T13:44:04.321Z,26.94
2022-07-31T13:46:32.225Z,27.01
2022-07-31T13:49:02.189Z,27.06
2022-07-31T13:51:30.733Z,27.11
2022-07-31T13:53:58.322Z,27.03
2022-07-31T13:56:39.144Z,27.12
2022-07-31T13:59:10.196Z,27.26
2022-07-31T14:02:02.943Z,27.31
2022-07-31T14:04:30.363Z,27.20
2022-07-31T14:07:01.260Z,27.19
2022-07-31T14:09:31.145Z,27.19
2022-07-31T14:11:58.807Z,27.22
2022-07-31T14:14:31.457Z,27.15
2022-07-31T14:16:59.009Z,27.05
2022-07-31T14:19:27.929Z,26.96
2022-07-31T14:21:57.012Z,26.82
2022-07-31T14:24:25.909Z,26.69
2022-07-31T14:26:53.677Z,26.62
2022-07-31T14:29:21.263Z,26.49
2022-07-31T14:31:48.837Z,26.38
2022-07-31T14:34:16.404Z,26.22
2022-07-31T14:36:45.325Z,26.06
2022-07-31T14:39:13.013Z,25.92
2022-07-31T14:41:40.566Z,25.79
2022-07-31T14:44:08.535Z,25.62
2022-07-31T14:46:36.156Z,25.47
2022-07-31T14:49:04.604Z,25.26
2022-07-31T14:51:32.221Z,25.15
2022-07-31T14:54:01.266Z,25.00
2022-07-31T14:56:58.638Z,24.84
2022-07-31T14:59:16.379Z,24.71
2022-07-31T15:01:43.990Z,24.56
2022-07-31T15:04:11.653Z,24.37
2022-07-31T15:06:56.194Z,24.20
2022-07-31T15:09:28.372Z,24.03
2022-07-31T15:11:59.824Z,23.91
2022-07-31T15:14:28.432Z,23.77
2022-07-31T15:16:56.039Z,23.68
2022-07-31T15:19:23.666Z,23.56
2022-07-31T15:22:10.931Z,23.48
2022-07-31T15:24:45.523Z,23.36
2022-07-31T15:27:17.205Z,23.32
2022-07-31T15:30:04.146Z,23.30
2022-07-31T15:32:33.717Z,23.28
2022-07-31T15:35:01.724Z,23.23
2022-07-31T15:37:30.003Z,23.17
2022-07-31T15:40:02.402Z,23.03
2022-07-31T15:42:31.756Z,22.92
2022-07-31T15:44:59.311Z,22.83
2022-07-31T15:47:26.895Z,22.73
2022-07-31T15:49:54.476Z,22.64
2022-07-31T15:52:22.086Z,22.56
2022-07-31T15:54:52.066Z,22.52
2022-07-31T15:57:21.719Z,22.48
2022-07-31T15:59:49.906Z,22.45
2022-07-31T16:02:17.649Z,22.39
2022-07-31T16:04:52.831Z,22.35
2022-07-31T16:08:32.080Z,22.26
2022-07-31T16:10:15.564Z,22.20
2022-07-31T16:12:47.094Z,22.19
2022-07-31T16:15:15.114Z,22.21
2022-07-31T16:17:43.885Z,22.24
2022-07-31T16:20:13.298Z,22.24
2022-07-31T16:22:56.202Z,22.20
2022-07-31T16:25:24.972Z,22.12
2022-07-31T16:27:53.973Z,22.07
2022-07-31T16:30:22.495Z,22.00
2022-07-31T16:32:50.588Z,21.89
2022-07-31T16:35:18.509Z,21.81
2022-07-31T16:37:51.922Z,21.79
2022-07-31T16:40:29.271Z,21.78
2022-07-31T16:43:01.822Z,21.74
2022-07-31T16:45:30.728Z,21.75
2022-07-31T16:47:58.453Z,21.71
2022-07-31T16:50:26.313Z,21.67
2022-07-31T16:52:55.124Z,21.63
2022-07-31T16:56:00.205Z,21.55
2022-07-31T16:58:13.597Z,21.46
2022-07-31T17:00:41.281Z,21.37
2022-07-31T17:03:58.950Z,21.27
2022-07-31T17:05:57.259Z,21.21
2022-07-31T17:08:24.973Z,21.14
2022-07-31T17:10:54.781Z,21.12
2022-07-31T17:13:23.949Z,21.08
2022-07-31T17:15:51.615Z,21.08
2022-07-31T17:18:24.767Z,21.11
2022-07-31T17:20:52.665Z,21.06
2022-07-31T17:23:43.316Z,21.06
2022-07-31T17:26:07.824Z,21.04
2022-07-31T17:28:36.972Z,21.05
2022-07-31T17:31:04.593Z,20.99
2022-07-31T17:33:59.289Z,20.97
2022-07-31T17:36:20.240Z,20.90
2022-07-31T17:38:47.796Z,20.85
2022-07-31T17:41:25.246Z,20.73
2022-07-31T17:43:55.115Z,20.71
2022-07-31T17:46:34.571Z,20.64
2022-07-31T17:49:08.047Z,20.56
2022-07-31T17:51:35.721Z,20.47
2022-07-31T17:54:03.648Z,20.37
2022-07-31T17:56:31.436Z,20.27
2022-07-31T17:59:05.142Z,20.18
2022-07-31T18:01:33.798Z,20.16
2022-07-31T18:04:01.831Z,20.16
2022-07-31T18:06:29.433Z,20.15
2022-07-31T18:08:57.701Z,20.09
2022-07-31T18:11:27.235Z,20.09
2022-07-31T18:13:55.463Z,20.05
2022-07-31T18:16:29.854Z,19.99
2022-07-31T18:18:57.445Z,19.96
2022-07-31T18:21:25.022Z,19.83
2022-07-31T18:23:52.744Z,19.74
2022-07-31T18:26:20.337Z,19.66
2022-07-31T18:28:47.889Z,19.55
2022-07-31T18:31:34.923Z,19.50
2022-07-31T18:34:06.107Z,19.35
2022-07-31T18:36:33.949Z,19.26
2022-07-31T18:39:02.176Z,19.19
2022-07-31T18:41:29.824Z,19.16
2022-07-31T18:43:58.205Z,19.10
2022-07-31T18:46:26.581Z,19.07
2022-07-31T18:48:55.996Z,19.05
2022-07-31T18:51:27.870Z,18.99
2022-07-31T18:53:55.946Z,18.93
2022-07-31T18:56:24.652Z,18.90
2022-07-31T18:58:55.283Z,18.88
2022-07-31T19:01:24.335Z,18.88
2022-07-31T19:03:52.540Z,18.83
2022-07-31T19:06:20.538Z,18.78
2022-07-31T19:08:51.122Z,18.73
2022-07-31T19:11:19.434Z,18.69
2022-07-31T19:13:47.621Z,18.64
2022-07-31T19:16:15.797Z,18.59
2022-07-31T19:18:45.152Z,18.52
2022-07-31T19:21:21.236Z,18.47
2022-07-31T19:23:52.974Z,18.44
2022-07-31T19:26:20.829Z,18.43
2022-07-31T19:28:48.383Z,18.40
2022-07-31T19:31:16.062Z,18.31
2022-07-31T19:33:43.991Z,18.34
2022-07-31T19:36:12.302Z,18.33
2022-07-31T19:38:44.016Z,18.34
2022-07-31T19:41:13.761Z,18.35
2022-07-31T19:43:41.406Z,18.35
2022-07-31T19:46:11.477Z,18.32
2022-07-31T19:48:40.824Z,18.31
2022-07-31T19:51:08.586Z,18.31
2022-07-31T19:53:36.233Z,18.31
2022-07-31T19:56:05.515Z,18.31
2022-07-31T19:58:35.671Z,18.32
2022-07-31T20:01:04.056Z,18.36
2022-07-31T20:03:31.877Z,18.39
2022-07-31T20:05:59.581Z,18.44
2022-07-31T20:08:28.118Z,18.46
2022-07-31T20:11:02.948Z,18.50
2022-07-31T20:13:31.084Z,18.55
2022-07-31T20:16:00.153Z,18.53
2022-07-31T20:18:30.624Z,18.57
2022-07-31T20:21:00.023Z,18.56
2022-07-31T20:23:28.587Z,18.56
2022-07-31T20:25:57.303Z,18.56
2022-07-31T20:28:28.864Z,18.60
2022-07-31T20:30:56.562Z,18.62
2022-07-31T20:33:25.535Z,18.63
2022-07-31T20:35:53.165Z,18.63
2022-07-31T20:38:21.773Z,18.63
2022-07-31T20:40:53.502Z,18.66
2022-07-31T20:43:23.253Z,18.66
2022-07-31T20:45:51.377Z,18.67
2022-07-31T20:48:21.768Z,18.66
2022-07-31T20:50:50.888Z,18.64
2022-07-31T20:53:19.280Z,18.65
2022-07-31T20:55:49.644Z,18.62
2022-07-31T20:58:17.659Z,18.62
2022-07-31T21:00:47.108Z,18.64
2022-07-31T21:03:14.741Z,18.64
2022-07-31T21:05:42.345Z,18.64
2022-07-31T21:08:11.883Z,18.62
2022-07-31T21:10:39.837Z,18.65
2022-07-31T21:13:07.454Z,18.68
2022-07-31T21:15:41.752Z,18.68
2022-07-31T21:18:12.393Z,18.69
2022-07-31T21:20:51.494Z,18.73
2022-07-31T21:23:22.057Z,18.73
2022-07-31T21:25:49.955Z,18.72
2022-07-31T21:28:18.172Z,18.73
2022-07-31T21:30:46.295Z,18.72
2022-07-31T21:33:14.125Z,18.71
2022-07-31T21:35:42.339Z,18.72
2022-07-31T21:38:12.170Z,18.72
2022-07-31T21:40:42.417Z,18.71
2022-07-31T21:43:10.337Z,18.68
2022-07-31T21:45:49.669Z,18.70
2022-07-31T21:48:24.699Z,18.72
2022-07-31T21:50:52.710Z,18.72
2022-07-31T21:53:20.274Z,18.74
2022-07-31T21:55:49.241Z,18.75
2022-07-31T21:58:17.180Z,18.73
2022-07-31T22:00:45.079Z,18.75
2022-07-31T22:03:13.152Z,18.75
2022-07-31T22:05:58.261Z,18.76
2022-07-31T22:08:25.810Z,18.75
2022-07-31T22:10:54.849Z,18.77
2022-07-31T22:13:22.504Z,18.78
2022-07-31T22:15:55.526Z,18.76
2022-07-31T22:18:28.578Z,18.77
2022-07-31T22:20:56.561Z,18.77
2022-07-31T22:23:24.578Z,18.79
2022-07-31T22:25:52.700Z,18.79
2022-07-31T22:28:23.087Z,18.79
2022-07-31T22:30:51.328Z,18.79
2022-07-31T22:33:19.163Z,18.81
2022-07-31T22:35:58.218Z,18.82
2022-07-31T22:38:28.244Z,18.83
2022-07-31T22:40:55.923Z,18.83
2022-07-31T22:44:12.089Z,18.82
2022-07-31T22:46:13.509Z,18.81
2022-07-31T22:48:41.603Z,18.80
2022-07-31T22:51:10.617Z,18.80
2022-07-31T22:53:42.725Z,18.82
2022-07-31T22:56:10.261Z,18.81
2022-07-31T22:58:39.246Z,18.81
2022-07-31T23:01:06.854Z,18.83
2022-07-31T23:03:34.472Z,18.83
2022-07-31T23:06:30.893Z,18.83
2022-07-31T23:08:52.018Z,18.86
2022-07-31T23:11:22.699Z,18.86
2022-07-31T23:13:51.618Z,18.86
2022-07-31T23:16:20.158Z,18.83
2022-07-31T23:18:47.944Z,18.83
2022-07-31T23:21:15.528Z,18.81
2022-07-31T23:23:48.665Z,18.82
2022-07-31T23:26:18.061Z,18.83
2022-07-31T23:28:45.786Z,18.82
2022-07-31T23:31:14.934Z,18.77
2022-07-31T23:33:43.093Z,18.77
2022-07-31T23:36:10.680Z,18.76
2022-07-31T23:38:38.328Z,18.77
2022-07-31T23:41:05.964Z,18.76
2022-07-31T23:43:32.568Z,18.76
2022-07-31T23:46:00.242Z,18.75
2022-07-31T23:48:30.071Z,18.72
2022-07-31T23:50:57.882Z,18.72
2022-07-31T23:53:25.457Z,18.70
2022-07-31T23:55:53.030Z,18.72
2022-07-31T23:58:20.835Z,18.67
